Delta Virtual Airport Information Service

Golden Triangle Regional Airport

ICAO: KGTR Country: United States
Latitude: 33.4503 Longitude: -88.5913
Latest Arrival : DAL1583 (KATL-KGTR) Latest Departure : DAL1704 (KGTR-KATL)


WX CaptureLIVE
Data provided by noaa.gov | Fetched at 10:33:14

METAR : KGTR 151456Z 33004KT 10SM CLR 30/23 A3000 RMK AO2 SLP162 6//// T03000228 50007 PNO $

TAF : KGTR 151120Z 1512/1612 36011KT P6SM FEW050 FM160300 01003KT P6SM SKC


Runway Data for KGTR
Data provided by openaviationdata.com

Runway ID Mag Var Hdg Length Elevation Surface ILS Freq ILS Id ILS Slope
18 0 179° 6509 ft 264 ft Asphalt 110.7 IGTR 3
36 0 359° 6509 ft 264 ft Asphalt -- -- --

Golden Triangle Regional Airport, United States
Use only for reference purposes



Not for navigational purposes.